Time;durP1;ratioP1;P1;durP2;ratioP2;P2;SDS_P1;SDS_P2;PMS_P1;PMS_P2;Temp;Humidity;BMP_temperature;BMP_pressure;BME280_temperature;BME280_humidity;BME280_pressure;Samples;Min_cycle;Max_cycle;Signal;HPM_P1;HPM_P2
2022/01/18 00:01:28;;;;;;;;;;;2.90;99.90;;;;;;5101940;28;19975;-79
2022/01/18 00:03:56;;;;;;;;;;;3.00;99.90;;;;;;5101138;28;19963;-80
2022/01/18 00:06:22;;;;;;;;;;;3.00;99.90;;;;;;5118222;28;19943;-77
2022/01/18 00:08:49;;;;;;;;;;;3.00;99.90;;;;;;5115946;28;19908;-79
2022/01/18 00:11:20;;;;;;;;;;;3.00;99.90;;;;;;5101504;28;19935;-79
2022/01/18 00:13:49;;;;;;;;;;;3.00;99.90;;;;;;5110455;28;19924;-79
2022/01/18 00:16:32;;;;;;;;;;;3.00;99.90;;;;;;5112707;28;19962;-79
2022/01/18 00:19:05;;;;;;;;;;;3.00;99.90;;;;;;5098100;28;20054;-79
2022/01/18 00:21:38;;;;;;;;;;;3.00;99.90;;;;;;5109754;28;20049;-79
2022/01/18 00:24:07;;;;;;;;;;;3.00;99.90;;;;;;5102965;28;19966;-79
2022/01/18 00:26:35;;;;;;;;;;;3.10;99.90;;;;;;5088526;28;20015;-78
2022/01/18 00:29:06;;;;;;;;;;;3.00;99.90;;;;;;5077302;28;19971;-78
2022/01/18 00:34:23;;;;;;;;;;;2.90;99.90;;;;;;5085604;28;19970;-79
2022/01/18 00:37:00;;;;;;;;;;;2.90;99.90;;;;;;5092797;28;19936;-78
2022/01/18 00:39:28;;;;;;;;;;;2.90;99.90;;;;;;5083323;28;20375;-79
2022/01/18 00:41:56;;;;;;;;;;;2.90;99.90;;;;;;5079888;28;19967;-78
2022/01/18 00:44:22;;;;;;;;;;;2.90;99.90;;;;;;5088381;28;19925;-78
2022/01/18 00:46:50;;;;;;;;;;;2.80;99.90;;;;;;5091781;28;19924;-78
2022/01/18 00:49:16;;;;;;;;;;;2.90;99.90;;;;;;5090136;28;19928;-79
2022/01/18 00:51:48;;;;;;;;;;;2.80;99.90;;;;;;5103283;28;19966;-79
2022/01/18 00:54:21;;;;;;;;;;;2.80;99.90;;;;;;5109103;28;19908;-80
2022/01/18 00:56:51;;;;;;;;;;;2.80;99.90;;;;;;5096561;28;19946;-79
2022/01/18 00:59:19;;;;;;;;;;;2.80;99.90;;;;;;5098162;28;19924;-80
2022/01/18 01:01:46;;;;;;;;;;;2.80;99.90;;;;;;5099857;28;19991;-79
2022/01/18 01:04:13;;;;;;;;;;;2.80;99.90;;;;;;5113662;28;19931;-80
2022/01/18 01:06:39;;;;;;;;;;;2.80;99.90;;;;;;5114281;28;19931;-79
2022/01/18 01:09:06;;;;;;;;;;;2.90;99.90;;;;;;5113539;28;20007;-80
2022/01/18 01:11:37;;;;;;;;;;;2.80;99.90;;;;;;5107288;28;19924;-80
2022/01/18 01:14:04;;;;;;;;;;;2.80;99.90;;;;;;5105568;28;19971;-80
2022/01/18 01:16:53;;;;;;;;;;;2.80;99.90;;;;;;5111335;28;19931;-80
2022/01/18 01:36:33;;;;;;;;;;;2.80;99.90;;;;;;5105541;28;19924;-79
2022/01/18 01:42:02;;;;;;;;;;;2.80;99.90;;;;;;5109638;28;19943;-81
2022/01/18 01:47:18;;;;;;;;;;;2.80;99.90;;;;;;5110938;28;19924;-80
2022/01/18 01:49:48;;;;;;;;;;;2.90;99.90;;;;;;5108271;28;19940;-81
2022/01/18 01:52:15;;;;;;;;;;;2.80;99.90;;;;;;5115242;28;19908;-81
2022/01/18 01:54:42;;;;;;;;;;;2.90;99.90;;;;;;5118131;28;19924;-81
2022/01/18 01:57:09;;;;;;;;;;;2.90;99.90;;;;;;5109285;28;19924;-81
2022/01/18 01:59:36;;;;;;;;;;;2.90;99.90;;;;;;5106521;28;19954;-80
2022/01/18 02:02:03;;;;;;;;;;;3.00;99.90;;;;;;5107642;28;19998;-81
2022/01/18 02:04:29;;;;;;;;;;;3.00;99.90;;;;;;5121018;28;19976;-76
2022/01/18 02:06:57;;;;;;;;;;;3.00;99.90;;;;;;5116296;28;19967;-80
2022/01/18 02:09:24;;;;;;;;;;;3.00;99.90;;;;;;5107342;28;19924;-80
2022/01/18 02:11:51;;;;;;;;;;;3.10;99.90;;;;;;5105735;28;19979;-80
2022/01/18 02:14:21;;;;;;;;;;;3.10;99.90;;;;;;5106636;28;19925;-78
2022/01/18 02:22:18;;;;;;;;;;;3.20;99.90;;;;;;5096889;28;19947;-78
2022/01/18 02:24:44;;;;;;;;;;;3.20;99.90;;;;;;5098498;28;20465;-77
2022/01/18 02:27:11;;;;;;;;;;;3.20;99.90;;;;;;5105661;28;19974;-78
2022/01/18 02:29:38;;;;;;;;;;;3.20;99.90;;;;;;5092211;28;19993;-78
2022/01/18 02:32:05;;;;;;;;;;;3.30;99.90;;;;;;5102180;28;19924;-78
2022/01/18 02:34:32;;;;;;;;;;;3.30;99.90;;;;;;5110723;28;19924;-78
2022/01/18 02:36:58;;;;;;;;;;;3.30;99.90;;;;;;5102252;28;19955;-78
2022/01/18 02:39:27;;;;;;;;;;;3.30;99.90;;;;;;5088636;28;19925;-78
2022/01/18 02:41:55;;;;;;;;;;;3.30;99.90;;;;;;5098724;28;20011;-78
2022/01/18 02:44:22;;;;;;;;;;;3.30;99.90;;;;;;5104128;28;20284;-79
2022/01/18 02:46:49;;;;;;;;;;;3.30;99.90;;;;;;5100205;28;19998;-80
2022/01/18 02:49:15;;;;;;;;;;;3.30;99.90;;;;;;5105420;28;20336;-79
2022/01/18 02:51:42;;;;;;;;;;;3.30;99.90;;;;;;5107191;28;19978;-78
2022/01/18 02:54:09;;;;;;;;;;;3.30;99.90;;;;;;5097162;28;19924;-80
2022/01/18 02:56:41;;;;;;;;;;;3.30;99.90;;;;;;5111329;28;19987;-79
2022/01/18 02:59:16;;;;;;;;;;;3.30;99.90;;;;;;5112681;28;19924;-79
2022/01/18 03:04:27;;;;;;;;;;;3.30;99.90;;;;;;5116533;28;19946;-79
2022/01/18 03:06:53;;;;;;;;;;;3.30;99.90;;;;;;5111267;28;19955;-80
2022/01/18 03:09:20;;;;;;;;;;;3.40;99.90;;;;;;5116776;28;19962;-79
2022/01/18 03:11:48;;;;;;;;;;;3.40;99.90;;;;;;5106505;28;20015;-80
2022/01/18 03:14:15;;;;;;;;;;;3.40;99.90;;;;;;5105498;28;19947;-79
2022/01/18 03:16:42;;;;;;;;;;;3.50;99.90;;;;;;5118943;28;19951;-79
2022/01/18 03:19:08;;;;;;;;;;;3.50;99.90;;;;;;5118155;28;19943;-74
2022/01/18 03:21:35;;;;;;;;;;;3.50;99.90;;;;;;5113305;28;19952;-80
2022/01/18 03:24:14;;;;;;;;;;;3.60;99.90;;;;;;5108473;28;19952;-81
2022/01/18 03:29:23;;;;;;;;;;;3.60;99.90;;;;;;5106879;28;19915;-80
2022/01/18 03:31:50;;;;;;;;;;;3.60;99.90;;;;;;5118649;28;19939;-80
2022/01/18 03:34:16;;;;;;;;;;;3.60;99.90;;;;;;5115764;28;19936;-80
2022/01/18 03:36:43;;;;;;;;;;;3.60;99.90;;;;;;5118901;28;19939;-75
2022/01/18 03:39:10;;;;;;;;;;;3.60;99.90;;;;;;5111835;28;19932;-79
2022/01/18 03:41:37;;;;;;;;;;;3.60;99.90;;;;;;5114410;28;19979;-79
2022/01/18 03:44:04;;;;;;;;;;;3.60;99.90;;;;;;5113331;28;19908;-80
2022/01/18 03:46:36;;;;;;;;;;;3.60;99.90;;;;;;5105073;28;19975;-78
2022/01/18 03:49:04;;;;;;;;;;;3.60;99.90;;;;;;5118556;28;19908;-75
2022/01/18 03:51:30;;;;;;;;;;;3.60;99.90;;;;;;5113577;28;19991;-80
2022/01/18 03:53:57;;;;;;;;;;;3.60;99.90;;;;;;5110105;28;19964;-80
2022/01/18 03:56:26;;;;;;;;;;;3.60;99.90;;;;;;5231854;22;20223;-69
2022/01/18 03:58:53;;;;;;;;;;;3.70;99.90;;;;;;5128953;28;19975;-73
2022/01/18 04:01:19;;;;;;;;;;;3.60;99.90;;;;;;5116337;28;19908;-80
2022/01/18 04:03:48;;;;;;;;;;;3.60;99.90;;;;;;5110975;28;19995;-80
2022/01/18 04:06:14;;;;;;;;;;;3.60;99.90;;;;;;5111912;28;19966;-80
2022/01/18 04:08:41;;;;;;;;;;;3.60;99.90;;;;;;5108496;28;19924;-79
2022/01/18 04:11:08;;;;;;;;;;;3.70;99.90;;;;;;5104669;28;19924;-79
2022/01/18 04:13:34;;;;;;;;;;;3.70;99.90;;;;;;5101194;28;19991;-78
2022/01/18 04:16:01;;;;;;;;;;;3.60;99.90;;;;;;5106585;28;19979;-78
2022/01/18 04:18:33;;;;;;;;;;;3.60;99.90;;;;;;5088870;28;19986;-78
2022/01/18 04:29:14;;;;;;;;;;;3.60;99.90;;;;;;5080461;28;19955;-78
2022/01/18 04:31:41;;;;;;;;;;;3.60;99.90;;;;;;5098773;28;19925;-79
2022/01/18 04:34:08;;;;;;;;;;;3.50;99.90;;;;;;5087135;28;19960;-79
2022/01/18 04:36:36;;;;;;;;;;;3.50;99.90;;;;;;5088572;28;19946;-78
2022/01/18 04:39:03;;;;;;;;;;;3.50;99.90;;;;;;5105516;28;19936;-78
2022/01/18 04:41:31;;;;;;;;;;;3.50;99.90;;;;;;5091094;28;19932;-79
2022/01/18 04:48:24;;;;;;;;;;;3.60;99.90;;;;;;5101541;28;19909;-80
2022/01/18 04:49:38;;;;;;;;;;;3.60;99.90;;;;;;5121218;28;19980;-79
2022/01/18 04:52:06;;;;;;;;;;;3.60;99.90;;;;;;5111666;28;19955;-79
2022/01/18 04:54:33;;;;;;;;;;;3.60;99.90;;;;;;5118716;28;19962;-80
2022/01/18 04:59:44;;;;;;;;;;;3.60;99.90;;;;;;5116032;28;19946;-79
2022/01/18 05:02:10;;;;;;;;;;;3.60;99.90;;;;;;5109363;28;19954;-78
2022/01/18 05:04:43;;;;;;;;;;;3.60;99.90;;;;;;5096078;28;19940;-79
2022/01/18 05:07:13;;;;;;;;;;;3.60;99.90;;;;;;5103171;28;20383;-79
2022/01/18 05:09:42;;;;;;;;;;;3.60;99.90;;;;;;5110109;28;19928;-77
2022/01/18 05:12:15;;;;;;;;;;;3.50;99.90;;;;;;5110591;28;20027;-78
2022/01/18 05:14:42;;;;;;;;;;;3.50;99.90;;;;;;5104258;28;19925;-78
2022/01/18 05:17:21;;;;;;;;;;;3.50;99.90;;;;;;5099875;28;19967;-78
2022/01/18 05:20:02;;;;;;;;;;;3.50;99.90;;;;;;5103860;28;19914;-79
2022/01/18 05:25:14;;;;;;;;;;;3.60;99.90;;;;;;5102101;28;19919;-80
2022/01/18 05:27:41;;;;;;;;;;;3.60;99.90;;;;;;5109941;28;19985;-77
2022/01/18 05:30:08;;;;;;;;;;;3.60;99.90;;;;;;5112243;28;19975;-78
2022/01/18 05:32:35;;;;;;;;;;;3.60;99.90;;;;;;5114909;28;19932;-79
2022/01/18 05:35:01;;;;;;;;;;;3.60;99.90;;;;;;5103456;28;19947;-79
2022/01/18 05:37:29;;;;;;;;;;;3.60;99.90;;;;;;5101786;28;19930;-77
2022/01/18 05:39:56;;;;;;;;;;;3.60;99.90;;;;;;5100480;28;19987;-79
2022/01/18 05:42:22;;;;;;;;;;;3.60;99.90;;;;;;5098186;28;19955;-78
2022/01/18 05:44:49;;;;;;;;;;;3.70;99.90;;;;;;5099864;28;20343;-79
2022/01/18 05:47:16;;;;;;;;;;;3.60;99.90;;;;;;5100865;28;20022;-78
2022/01/18 05:49:42;;;;;;;;;;;3.70;99.90;;;;;;5098850;28;19956;-77
2022/01/18 05:52:09;;;;;;;;;;;3.70;99.90;;;;;;5093684;28;19970;-78
2022/01/18 05:54:37;;;;;;;;;;;3.70;99.90;;;;;;5099904;28;19924;-77
2022/01/18 05:57:04;;;;;;;;;;;3.70;99.90;;;;;;5095873;28;19931;-78
2022/01/18 05:59:37;;;;;;;;;;;3.70;99.90;;;;;;5097275;28;19935;-78
2022/01/18 06:02:14;;;;;;;;;;;3.60;99.90;;;;;;5097672;28;19928;-79
2022/01/18 06:07:25;;;;;;;;;;;3.50;99.90;;;;;;5103096;28;19934;-77
2022/01/18 06:09:56;;;;;;;;;;;3.50;99.90;;;;;;5119890;28;19909;-73
2022/01/18 06:12:22;;;;;;;;;;;3.50;99.90;;;;;;5120640;28;19908;-65
2022/01/18 06:35:36;;;;;;;;;;;3.70;99.90;;;;;;5215098;22;19914;-72
2022/01/18 06:38:02;;;;;;;;;;;3.70;99.90;;;;;;5100029;28;19916;-79
2022/01/18 06:40:34;;;;;;;;;;;3.80;99.90;;;;;;5099386;28;19925;-81
2022/01/18 06:43:03;;;;;;;;;;;3.70;99.90;;;;;;5099033;28;20027;-81
2022/01/18 06:45:33;;;;;;;;;;;3.80;99.90;;;;;;5100613;28;19915;-68
2022/01/18 06:47:59;;;;;;;;;;;3.80;99.90;;;;;;5099677;28;19909;-75
2022/01/18 06:50:26;;;;;;;;;;;3.80;99.90;;;;;;5100479;28;19939;-70
2022/01/18 06:52:54;;;;;;;;;;;3.80;99.90;;;;;;5096013;28;19980;-68
2022/01/18 06:55:21;;;;;;;;;;;3.80;99.90;;;;;;5097594;28;19936;-74
2022/01/18 06:57:47;;;;;;;;;;;3.80;99.90;;;;;;5084673;28;19970;-78
2022/01/18 07:00:15;;;;;;;;;;;3.80;99.90;;;;;;5065981;28;19928;-79
2022/01/18 07:02:42;;;;;;;;;;;3.90;99.90;;;;;;5068020;28;19960;-79
2022/01/18 07:05:11;;;;;;;;;;;3.90;99.90;;;;;;5068665;28;19933;-79
2022/01/18 07:07:47;;;;;;;;;;;3.90;99.90;;;;;;5066506;28;19935;-77
2022/01/18 07:10:15;;;;;;;;;;;3.90;99.90;;;;;;5085020;28;19983;-79
2022/01/18 07:12:42;;;;;;;;;;;4.00;99.90;;;;;;5070882;28;19924;-76
2022/01/18 07:15:09;;;;;;;;;;;4.00;99.90;;;;;;5066847;28;20035;-76
2022/01/18 07:17:37;;;;;;;;;;;4.00;99.90;;;;;;5070994;28;20015;-76
2022/01/18 07:20:04;;;;;;;;;;;4.00;99.90;;;;;;5068648;28;19924;-77
2022/01/18 07:22:30;;;;;;;;;;;4.00;99.90;;;;;;5073773;28;19924;-76
2022/01/18 07:24:59;;;;;;;;;;;4.00;99.90;;;;;;5078317;28;19925;-76
2022/01/18 07:27:27;;;;;;;;;;;4.10;99.90;;;;;;5081920;28;19924;-76
2022/01/18 07:29:53;;;;;;;;;;;4.10;99.90;;;;;;5075955;28;20387;-77
2022/01/18 07:32:21;;;;;;;;;;;4.10;99.90;;;;;;5081356;28;19955;-77
2022/01/18 07:34:52;;;;;;;;;;;4.20;99.90;;;;;;5079928;28;19932;-78
2022/01/18 07:37:19;;;;;;;;;;;4.20;99.90;;;;;;5073129;28;20295;-78
2022/01/18 07:39:46;;;;;;;;;;;4.20;99.90;;;;;;5070420;28;20312;-76
2022/01/18 07:42:12;;;;;;;;;;;4.10;99.90;;;;;;5075585;28;19924;-74
2022/01/18 07:44:40;;;;;;;;;;;4.20;99.90;;;;;;5072840;28;19928;-76
2022/01/18 07:47:07;;;;;;;;;;;4.10;99.90;;;;;;5071171;28;20426;-76
2022/01/18 07:49:34;;;;;;;;;;;4.10;99.90;;;;;;5075056;28;19958;-70
2022/01/18 07:52:00;;;;;;;;;;;4.10;99.90;;;;;;5067882;28;19947;-68
2022/01/18 07:54:27;;;;;;;;;;;4.20;99.90;;;;;;5066777;28;20287;-69
2022/01/18 07:56:54;;;;;;;;;;;4.20;99.90;;;;;;5066649;28;19954;-68
2022/01/18 07:59:25;;;;;;;;;;;4.30;99.90;;;;;;5065254;28;19935;-69
2022/01/18 08:01:53;;;;;;;;;;;4.30;99.90;;;;;;5061595;28;20450;-69
2022/01/18 08:04:20;;;;;;;;;;;4.40;99.90;;;;;;5065407;28;19931;-65
2022/01/18 08:06:50;;;;;;;;;;;4.30;99.90;;;;;;5063708;28;20028;-66
2022/01/18 08:09:19;;;;;;;;;;;4.40;99.90;;;;;;5066292;28;19928;-66
2022/01/18 08:11:46;;;;;;;;;;;4.30;99.90;;;;;;5061498;28;19967;-66
2022/01/18 08:14:13;;;;;;;;;;;4.30;99.90;;;;;;5062587;28;19987;-66
2022/01/18 08:17:00;;;;;;;;;;;4.30;99.90;;;;;;5063877;28;20442;-66
2022/01/18 08:19:28;;;;;;;;;;;4.30;99.90;;;;;;5059741;28;19940;-66
2022/01/18 08:21:55;;;;;;;;;;;4.30;99.90;;;;;;5057163;28;19928;-66
2022/01/18 08:24:22;;;;;;;;;;;4.30;99.90;;;;;;5068316;28;19924;-66
2022/01/18 08:26:48;;;;;;;;;;;4.30;99.90;;;;;;5065975;28;19938;-66
2022/01/18 08:29:15;;;;;;;;;;;4.40;99.90;;;;;;5061553;28;19935;-66
2022/01/18 08:31:42;;;;;;;;;;;4.30;99.90;;;;;;5060883;28;19925;-66
2022/01/18 08:34:09;;;;;;;;;;;4.40;99.90;;;;;;5064390;28;20419;-66
2022/01/18 08:36:37;;;;;;;;;;;4.40;99.90;;;;;;5061560;28;19932;-67
2022/01/18 08:39:05;;;;;;;;;;;4.50;99.90;;;;;;5063166;28;19932;-67
2022/01/18 08:41:32;;;;;;;;;;;4.50;99.90;;;;;;5062102;28;19929;-66
2022/01/18 08:43:58;;;;;;;;;;;4.50;99.90;;;;;;5065502;28;19932;-67
2022/01/18 08:46:25;;;;;;;;;;;4.60;99.90;;;;;;5061222;28;19952;-66
2022/01/18 08:48:52;;;;;;;;;;;4.60;99.90;;;;;;5063390;28;19924;-67
2022/01/18 08:51:19;;;;;;;;;;;4.70;99.90;;;;;;5062706;28;20523;-66
2022/01/18 08:53:50;;;;;;;;;;;4.70;99.90;;;;;;5057255;28;19932;-66
2022/01/18 08:56:17;;;;;;;;;;;4.70;99.90;;;;;;5063940;28;19928;-67
2022/01/18 08:58:43;;;;;;;;;;;4.80;99.90;;;;;;5062291;28;20422;-66
2022/01/18 09:01:10;;;;;;;;;;;4.80;99.90;;;;;;5057179;28;20013;-66
2022/01/18 09:03:37;;;;;;;;;;;4.80;99.90;;;;;;5059955;28;19971;-67
2022/01/18 09:06:04;;;;;;;;;;;4.80;99.90;;;;;;5056268;28;19928;-67
2022/01/18 09:08:32;;;;;;;;;;;4.80;99.90;;;;;;5060403;28;19933;-66
2022/01/18 09:10:59;;;;;;;;;;;4.90;99.90;;;;;;5063634;28;19956;-66
2022/01/18 09:13:28;;;;;;;;;;;4.90;99.90;;;;;;5064497;28;19931;-66
2022/01/18 09:15:55;;;;;;;;;;;4.90;99.90;;;;;;5064484;28;19936;-67
2022/01/18 09:18:22;;;;;;;;;;;5.00;99.90;;;;;;5065471;28;19943;-73
2022/01/18 09:20:49;;;;;;;;;;;5.00;99.90;;;;;;5065507;28;19932;-67
2022/01/18 09:23:16;;;;;;;;;;;5.00;99.90;;;;;;5069608;28;19930;-66
2022/01/18 09:25:43;;;;;;;;;;;5.10;99.90;;;;;;5070446;28;19925;-65
2022/01/18 09:28:11;;;;;;;;;;;5.10;99.90;;;;;;5064226;28;19986;-66
2022/01/18 09:30:38;;;;;;;;;;;5.10;99.90;;;;;;5065963;28;19929;-66
2022/01/18 09:33:06;;;;;;;;;;;5.20;99.90;;;;;;5069350;28;19925;-66
2022/01/18 09:35:33;;;;;;;;;;;5.20;99.90;;;;;;5071066;28;19924;-66
2022/01/18 09:37:59;;;;;;;;;;;5.30;99.90;;;;;;5066607;28;19924;-65
2022/01/18 09:40:26;;;;;;;;;;;5.30;99.90;;;;;;5071032;28;19933;-65
2022/01/18 09:43:00;;;;;;;;;;;5.40;99.90;;;;;;5066785;28;19932;-66
2022/01/18 09:45:29;;;;;;;;;;;5.40;99.90;;;;;;5067080;28;20018;-66
2022/01/18 09:47:56;;;;;;;;;;;5.50;99.90;;;;;;5068652;28;19930;-66
2022/01/18 09:50:27;;;;;;;;;;;5.50;99.90;;;;;;5067872;28;19924;-66
2022/01/18 09:52:55;;;;;;;;;;;5.60;99.90;;;;;;5067394;28;20044;-66
2022/01/18 09:55:24;;;;;;;;;;;5.60;99.90;;;;;;5068523;28;20034;-66
2022/01/18 09:57:51;;;;;;;;;;;5.60;99.90;;;;;;5067504;28;20015;-71
2022/01/18 10:00:18;;;;;;;;;;;5.70;99.90;;;;;;5070166;28;19925;-66
2022/01/18 10:02:46;;;;;;;;;;;5.80;99.90;;;;;;5064274;28;20260;-66
2022/01/18 10:05:20;;;;;;;;;;;5.80;99.90;;;;;;5066656;28;20628;-67
2022/01/18 10:07:54;;;;;;;;;;;5.90;99.90;;;;;;5063114;28;19944;-67
2022/01/18 10:10:21;;;;;;;;;;;5.90;99.90;;;;;;5068501;28;19924;-67
2022/01/18 10:12:55;;;;;;;;;;;5.90;99.90;;;;;;5066626;28;19932;-66
2022/01/18 10:15:22;;;;;;;;;;;5.90;99.90;;;;;;5065421;28;19943;-67
2022/01/18 10:17:50;;;;;;;;;;;5.80;99.90;;;;;;5067583;28;19935;-66
2022/01/18 10:20:20;;;;;;;;;;;5.80;99.90;;;;;;5068797;28;19924;-66
2022/01/18 10:22:49;;;;;;;;;;;5.70;99.90;;;;;;5067291;28;19935;-67
2022/01/18 10:25:16;;;;;;;;;;;5.80;99.90;;;;;;5069161;28;19925;-66
2022/01/18 10:27:43;;;;;;;;;;;5.70;99.90;;;;;;5063335;28;19925;-66
2022/01/18 10:30:15;;;;;;;;;;;5.80;99.90;;;;;;5067810;28;19924;-67
2022/01/18 10:32:43;;;;;;;;;;;5.90;99.90;;;;;;5067087;28;19931;-66
2022/01/18 10:35:11;;;;;;;;;;;6.00;99.90;;;;;;5065791;28;19932;-67
2022/01/18 10:37:41;;;;;;;;;;;5.80;99.90;;;;;;5067507;28;19942;-66
2022/01/18 10:40:09;;;;;;;;;;;5.90;99.90;;;;;;5063686;28;19931;-67
2022/01/18 10:42:43;;;;;;;;;;;6.10;99.90;;;;;;5066025;28;19924;-66
2022/01/18 10:45:14;;;;;;;;;;;5.90;99.90;;;;;;5066768;28;19925;-69
2022/01/18 10:47:48;;;;;;;;;;;5.80;99.90;;;;;;5064308;28;19932;-66
2022/01/18 10:50:17;;;;;;;;;;;5.90;99.90;;;;;;5068211;28;19924;-66
2022/01/18 10:52:44;;;;;;;;;;;6.00;99.90;;;;;;5065613;28;19932;-66
2022/01/18 10:55:15;;;;;;;;;;;6.10;99.90;;;;;;5066749;28;19925;-67
2022/01/18 10:57:41;;;;;;;;;;;6.10;99.90;;;;;;5062290;28;19944;-67
2022/01/18 11:00:09;;;;;;;;;;;6.10;99.90;;;;;;5066208;28;20413;-66
2022/01/18 11:02:37;;;;;;;;;;;6.30;99.90;;;;;;5059745;28;20405;-66
2022/01/18 11:05:12;;;;;;;;;;;6.30;99.90;;;;;;5066330;28;19931;-66
2022/01/18 11:07:40;;;;;;;;;;;6.50;99.90;;;;;;5068011;28;19931;-66
2022/01/18 11:10:08;;;;;;;;;;;6.60;99.90;;;;;;5069523;28;19929;-65
2022/01/18 11:12:45;;;;;;;;;;;6.70;99.90;;;;;;5064838;28;19959;-65
2022/01/18 11:15:17;;;;;;;;;;;6.60;99.90;;;;;;5064449;28;20375;-65
2022/01/18 11:17:49;;;;;;;;;;;6.60;99.90;;;;;;5061495;28;20422;-65
2022/01/18 11:20:16;;;;;;;;;;;6.50;99.90;;;;;;5062771;28;19936;-64
2022/01/18 11:22:44;;;;;;;;;;;6.60;99.90;;;;;;5061585;28;19931;-66
2022/01/18 11:25:11;;;;;;;;;;;6.60;99.90;;;;;;5062849;28;19924;-68
2022/01/18 11:27:39;;;;;;;;;;;6.80;99.90;;;;;;5061475;28;20031;-65
2022/01/18 11:30:07;;;;;;;;;;;6.80;99.90;;;;;;5063663;28;20001;-66
2022/01/18 11:32:34;;;;;;;;;;;6.80;99.90;;;;;;5060005;28;20337;-65
2022/01/18 11:35:08;;;;;;;;;;;6.90;99.90;;;;;;5060592;28;19932;-65
2022/01/18 11:37:38;;;;;;;;;;;6.90;99.90;;;;;;5065728;28;20176;-65
2022/01/18 11:40:07;;;;;;;;;;;6.90;99.90;;;;;;5066529;28;19925;-65
2022/01/18 11:42:39;;;;;;;;;;;6.90;99.90;;;;;;5062314;28;19925;-65
2022/01/18 11:45:20;;;;;;;;;;;6.90;99.90;;;;;;5068116;28;19931;-66
2022/01/18 11:47:58;;;;;;;;;;;6.80;99.90;;;;;;5062401;28;20392;-66
2022/01/18 11:50:27;;;;;;;;;;;6.70;99.90;;;;;;5064861;28;19924;-65
2022/01/18 11:53:14;;;;;;;;;;;6.90;99.90;;;;;;5059999;28;19924;-65
2022/01/18 11:55:44;;;;;;;;;;;7.10;99.90;;;;;;5061373;28;19924;-65
2022/01/18 11:58:11;;;;;;;;;;;7.20;99.90;;;;;;5065639;28;19932;-75
2022/01/18 12:00:49;;;;;;;;;;;6.80;99.90;;;;;;5064160;28;20291;-73
2022/01/18 12:03:17;;;;;;;;;;;7.00;99.90;;;;;;5066799;28;20007;-75
2022/01/18 12:05:44;;;;;;;;;;;7.10;99.90;;;;;;5063234;28;20310;-66
2022/01/18 12:08:28;;;;;;;;;;;7.30;99.90;;;;;;5059751;28;19928;-75
2022/01/18 12:10:56;;;;;;;;;;;7.40;99.90;;;;;;5069475;28;19956;-75
2022/01/18 12:13:37;;;;;;;;;;;7.40;99.90;;;;;;5064757;28;20379;-74
2022/01/18 12:16:08;;;;;;;;;;;7.30;99.90;;;;;;5068143;28;19931;-77
2022/01/18 12:18:35;;;;;;;;;;;7.40;99.90;;;;;;5067711;28;19924;-77
2022/01/18 12:21:04;;;;;;;;;;;7.60;99.90;;;;;;5066332;28;20398;-66
2022/01/18 12:23:41;;;;;;;;;;;7.80;99.90;;;;;;5066771;28;19936;-66
2022/01/18 12:26:15;;;;;;;;;;;7.70;99.90;;;;;;5062778;28;20019;-66
2022/01/18 12:32:04;;;;;;;;;;;7.50;99.90;;;;;;5020269;28;20415;-67
2022/01/18 12:34:32;;;;;;;;;;;7.50;99.90;;;;;;5065549;28;19928;-75
2022/01/18 12:37:20;;;;;;;;;;;7.50;99.90;;;;;;5068375;28;20342;-67
2022/01/18 12:40:05;;;;;;;;;;;7.60;99.90;;;;;;5063051;28;19928;-67
2022/01/18 12:45:20;;;;;;;;;;;7.40;99.90;;;;;;5066313;28;19947;-68
2022/01/18 12:47:48;;;;;;;;;;;7.60;99.90;;;;;;5067340;28;19928;-67
2022/01/18 12:50:16;;;;;;;;;;;7.50;99.90;;;;;;5067710;28;19931;-67
2022/01/18 12:52:46;;;;;;;;;;;7.40;99.90;;;;;;5065706;28;19942;-75
2022/01/18 12:55:24;;;;;;;;;;;7.30;99.90;;;;;;5070645;28;19925;-68
2022/01/18 12:57:59;;;;;;;;;;;7.40;99.90;;;;;;5063533;28;19934;-67
2022/01/18 13:00:25;;;;;;;;;;;7.50;99.90;;;;;;5065552;28;19925;-67
2022/01/18 13:02:52;;;;;;;;;;;7.60;99.90;;;;;;5070735;28;19925;-65
2022/01/18 13:05:19;;;;;;;;;;;7.70;99.90;;;;;;5072718;28;20015;-66
2022/01/18 13:07:49;;;;;;;;;;;7.60;99.90;;;;;;5067847;28;19933;-67
2022/01/18 13:10:16;;;;;;;;;;;7.50;99.90;;;;;;5073026;28;19925;-66
2022/01/18 13:12:44;;;;;;;;;;;7.50;99.90;;;;;;5072826;28;19932;-67
2022/01/18 13:15:21;;;;;;;;;;;7.50;99.90;;;;;;5069778;28;19997;-66
2022/01/18 13:23:17;;;;;;;;;;;7.60;99.90;;;;;;5066844;28;20008;-66
2022/01/18 13:25:47;;;;;;;;;;;7.60;99.90;;;;;;5071265;28;19924;-67
2022/01/18 13:28:14;;;;;;;;;;;7.60;99.90;;;;;;5065899;28;19931;-65
2022/01/18 13:30:42;;;;;;;;;;;7.70;99.90;;;;;;5070329;28;20469;-66
2022/01/18 13:33:11;;;;;;;;;;;7.70;99.90;;;;;;5074307;28;19931;-66
2022/01/18 13:35:38;;;;;;;;;;;7.80;99.90;;;;;;5072251;28;19925;-66
2022/01/18 13:38:05;;;;;;;;;;;7.90;99.90;;;;;;5061319;28;20007;-66
2022/01/18 13:40:35;;;;;;;;;;;7.90;99.90;;;;;;5070393;28;19931;-65
2022/01/18 13:43:06;;;;;;;;;;;7.90;99.90;;;;;;5066353;28;20255;-65
2022/01/18 13:45:34;;;;;;;;;;;7.90;99.90;;;;;;5069963;28;19929;-65
2022/01/18 13:48:06;;;;;;;;;;;8.00;99.90;;;;;;5068763;28;19928;-66
2022/01/18 13:50:38;;;;;;;;;;;8.00;99.90;;;;;;5072122;28;19977;-65
2022/01/18 13:53:06;;;;;;;;;;;8.10;99.90;;;;;;5071280;28;19924;-66
2022/01/18 13:55:34;;;;;;;;;;;8.10;99.90;;;;;;5069869;28;19931;-66
2022/01/18 13:58:01;;;;;;;;;;;8.10;99.90;;;;;;5071003;28;20379;-66
2022/01/18 14:00:29;;;;;;;;;;;8.00;99.90;;;;;;5072036;28;19924;-67
2022/01/18 14:02:56;;;;;;;;;;;8.20;99.90;;;;;;5071294;28;20011;-65
2022/01/18 14:05:24;;;;;;;;;;;8.20;99.90;;;;;;5068891;28;19931;-65
2022/01/18 14:08:01;;;;;;;;;;;8.20;99.90;;;;;;5065783;28;19934;-66
2022/01/18 14:10:27;;;;;;;;;;;8.20;99.90;;;;;;5070527;28;19930;-66
2022/01/18 14:12:55;;;;;;;;;;;8.20;99.90;;;;;;5070568;28;20761;-65
2022/01/18 14:15:35;;;;;;;;;;;8.00;99.90;;;;;;5068642;28;21518;-64
2022/01/18 14:18:02;;;;;;;;;;;7.90;99.90;;;;;;5066635;28;19929;-65
2022/01/18 14:20:33;;;;;;;;;;;7.80;99.90;;;;;;5072802;28;19928;-66
2022/01/18 14:23:00;;;;;;;;;;;7.70;99.90;;;;;;5071291;28;20012;-65
2022/01/18 14:25:29;;;;;;;;;;;7.70;99.90;;;;;;5070937;28;19931;-66
2022/01/18 14:27:55;;;;;;;;;;;7.60;99.90;;;;;;5068373;28;20295;-66
2022/01/18 14:30:24;;;;;;;;;;;7.50;99.90;;;;;;5067026;28;19939;-66
2022/01/18 14:32:51;;;;;;;;;;;7.50;99.90;;;;;;5068712;28;19928;-66
2022/01/18 14:35:19;;;;;;;;;;;7.40;99.90;;;;;;5065466;28;19925;-66
2022/01/18 14:37:48;;;;;;;;;;;7.30;99.90;;;;;;5066697;28;19936;-66
2022/01/18 14:40:17;;;;;;;;;;;7.20;99.90;;;;;;5067949;28;20008;-65
2022/01/18 14:42:49;;;;;;;;;;;7.20;99.90;;;;;;5068442;28;20021;-66
2022/01/18 14:45:32;;;;;;;;;;;7.10;99.90;;;;;;5064968;28;19924;-66
2022/01/18 14:47:59;;;;;;;;;;;7.10;99.90;;;;;;5067846;28;19978;-66
2022/01/18 14:50:26;;;;;;;;;;;7.00;99.90;;;;;;5067539;28;20350;-65
2022/01/18 14:52:55;;;;;;;;;;;7.00;99.90;;;;;;5062767;28;19931;-65
2022/01/18 14:55:22;;;;;;;;;;;7.00;99.90;;;;;;5068186;28;20221;-66
2022/01/18 14:57:50;;;;;;;;;;;7.00;99.90;;;;;;5062666;28;19924;-65
2022/01/18 15:00:18;;;;;;;;;;;7.00;99.90;;;;;;5072248;28;20290;-65
2022/01/18 15:02:44;;;;;;;;;;;7.00;99.90;;;;;;5066697;28;20296;-64
2022/01/18 15:05:11;;;;;;;;;;;6.90;99.90;;;;;;5064986;28;19924;-64
2022/01/18 15:07:39;;;;;;;;;;;6.90;99.90;;;;;;5068964;28;19978;-65
2022/01/18 15:10:08;;;;;;;;;;;6.90;99.90;;;;;;5068276;28;19924;-64
2022/01/18 15:12:35;;;;;;;;;;;6.80;99.90;;;;;;5069007;28;19924;-65
2022/01/18 15:15:01;;;;;;;;;;;6.80;99.90;;;;;;5064725;28;19938;-65
2022/01/18 15:17:28;;;;;;;;;;;6.80;99.90;;;;;;5065450;28;19925;-65
2022/01/18 15:19:55;;;;;;;;;;;6.70;99.90;;;;;;5063918;28;19932;-65
2022/01/18 15:22:21;;;;;;;;;;;6.70;99.90;;;;;;5063338;28;20428;-65
2022/01/18 15:24:48;;;;;;;;;;;6.70;99.90;;;;;;5064582;28;19947;-65
2022/01/18 15:27:17;;;;;;;;;;;6.60;99.90;;;;;;5063911;28;19951;-65
2022/01/18 15:29:46;;;;;;;;;;;6.50;99.90;;;;;;5063746;28;19936;-65
2022/01/18 15:32:12;;;;;;;;;;;6.50;99.90;;;;;;5057406;28;19932;-64
2022/01/18 15:34:39;;;;;;;;;;;6.50;99.90;;;;;;5065340;28;19931;-65
2022/01/18 15:37:06;;;;;;;;;;;6.50;99.90;;;;;;5061180;28;19932;-65
2022/01/18 15:39:34;;;;;;;;;;;6.50;99.90;;;;;;5064517;28;19931;-65
2022/01/18 15:42:01;;;;;;;;;;;6.50;99.90;;;;;;5064627;28;19925;-65
2022/01/18 15:44:33;;;;;;;;;;;6.40;99.90;;;;;;5063486;28;19925;-66
2022/01/18 15:46:59;;;;;;;;;;;6.40;99.90;;;;;;5061938;28;20019;-65
2022/01/18 15:49:26;;;;;;;;;;;6.40;99.90;;;;;;5066119;28;20322;-66
2022/01/18 15:51:54;;;;;;;;;;;6.30;99.90;;;;;;5065356;28;19943;-67
2022/01/18 15:54:21;;;;;;;;;;;6.40;99.90;;;;;;5067249;28;19971;-67
2022/01/18 15:56:48;;;;;;;;;;;6.30;99.90;;;;;;5060278;28;20033;-66
2022/01/18 15:59:16;;;;;;;;;;;6.30;99.90;;;;;;5065516;28;19924;-64
2022/01/18 16:01:45;;;;;;;;;;;6.20;99.90;;;;;;5061507;28;19968;-65
2022/01/18 16:04:12;;;;;;;;;;;6.10;99.90;;;;;;5064450;28;20430;-65
2022/01/18 16:06:38;;;;;;;;;;;5.90;99.90;;;;;;5065692;28;20298;-66
2022/01/18 16:09:05;;;;;;;;;;;6.00;99.90;;;;;;5067309;28;19938;-65